Time;durP1;ratioP1;P1;durP2;ratioP2;P2;SDS_P1;SDS_P2;PMS_P1;PMS_P2;Temp;Humidity;BMP_temperature;BMP_pressure;BME280_temperature;BME280_humidity;BME280_pressure;Samples;Min_cycle;Max_cycle;Signal;HPM_P1;HPM_P2
2022/12/15 00:39:02;;;;;;;6.32;2.83;;;2.50;99.90;;;;;;5060886;28;20481;-71
2022/12/15 00:41:27;;;;;;;9.30;3.20;;;2.40;99.90;;;;;;5070228;28;20531;-70
2022/12/15 00:43:53;;;;;;;11.27;3.00;;;2.40;99.90;;;;;;5057547;28;20021;-72
2022/12/15 00:49:02;;;;;;;9.27;3.70;;;2.20;99.90;;;;;;5066627;28;20059;-70
2022/12/15 01:21:39;;;;;;;8.05;3.97;;;2.00;99.90;;;;;;5069661;28;20112;-69
2022/12/15 01:24:04;;;;;;;11.63;4.40;;;2.00;99.90;;;;;;5058361;28;20470;-69
2022/12/15 01:26:30;;;;;;;13.80;5.07;;;2.00;99.90;;;;;;5064799;28;20021;-69
2022/12/15 01:28:55;;;;;;;11.90;4.32;;;2.00;99.90;;;;;;5065535;28;20116;-69
2022/12/15 01:31:21;;;;;;;13.10;4.53;;;2.00;99.90;;;;;;5057045;28;20361;-69
2022/12/15 01:33:47;;;;;;;14.60;5.15;;;2.00;99.90;;;;;;5069380;28;20487;-67
2022/12/15 01:36:13;;;;;;;13.23;4.80;;;2.00;99.90;;;;;;5059545;28;20176;-67
2022/12/15 01:38:38;;;;;;;13.45;4.75;;;1.90;99.90;;;;;;5063274;28;20036;-68
2022/12/15 01:41:08;;;;;;;13.85;4.78;;;1.90;99.90;;;;;;5066368;28;20036;-67
2022/12/15 01:43:35;;;;;;;14.50;5.18;;;1.80;99.90;;;;;;5054322;28;20025;-67
2022/12/15 01:46:08;;;;;;;13.10;5.30;;;1.80;99.90;;;;;;5067467;28;20029;-68
2022/12/15 01:48:46;;;;;;;14.20;5.60;;;1.70;99.90;;;;;;5062334;28;20051;-68
2022/12/15 01:51:34;;;;;;;15.77;7.28;;;1.70;99.90;;;;;;5058363;28;20029;-68
2022/12/15 01:54:08;;;;;;;13.57;6.03;;;1.70;99.90;;;;;;5041875;28;20111;-68
2022/12/15 01:56:39;;;;;;;15.48;5.97;;;1.70;99.90;;;;;;5063816;28;20076;-68
2022/12/15 01:59:07;;;;;;;10.80;5.07;;;1.70;99.90;;;;;;5064424;28;20467;-67
2022/12/15 02:01:33;;;;;;;16.13;6.43;;;1.70;99.90;;;;;;5055656;28;20040;-68
2022/12/15 02:03:59;;;;;;;13.82;5.65;;;1.60;99.90;;;;;;5068188;28;20456;-68
2022/12/15 02:06:26;;;;;;;13.60;5.57;;;1.60;99.90;;;;;;5060337;28;20024;-67
2022/12/15 02:08:55;;;;;;;14.23;5.30;;;1.50;99.90;;;;;;5060661;28;20033;-68
2022/12/15 02:12:01;;;;;;;14.68;5.80;;;1.50;99.90;;;;;;5067941;28;20052;-68
2022/12/15 02:14:54;;;;;;;15.10;6.00;;;1.50;99.90;;;;;;5048738;28;20419;-68
2022/12/15 02:17:33;;;;;;;15.00;5.97;;;1.50;99.90;;;;;;5056614;28;20033;-67
2022/12/15 02:20:26;;;;;;;15.10;6.38;;;1.40;99.90;;;;;;5056582;28;20021;-69
2022/12/15 02:23:10;;;;;;;16.02;5.72;;;1.40;99.90;;;;;;5060627;28;20074;-69
2022/12/15 02:26:13;;;;;;;17.65;6.00;;;1.40;99.90;;;;;;5068440;28;20029;-68
2022/12/15 02:29:07;;;;;;;16.13;6.35;;;1.30;99.90;;;;;;5060706;28;20388;-69
2022/12/15 02:31:50;;;;;;;15.68;5.70;;;1.30;99.90;;;;;;5055379;28;20443;-68
2022/12/15 02:34:48;;;;;;;15.27;6.50;;;1.30;99.90;;;;;;5065370;28;20024;-69
2022/12/15 02:37:18;;;;;;;13.20;5.65;;;1.30;99.90;;;;;;5062051;28;20173;-70
2022/12/15 02:39:44;;;;;;;12.00;5.43;;;1.30;99.90;;;;;;5055428;28;20029;-68
2022/12/15 02:42:10;;;;;;;15.30;6.00;;;1.20;99.90;;;;;;5065581;28;20055;-69
2022/12/15 02:44:42;;;;;;;16.33;5.88;;;1.20;99.90;;;;;;5061680;28;20074;-68
2022/12/15 02:47:45;;;;;;;14.23;6.53;;;1.20;99.90;;;;;;5058150;28;20027;-69
2022/12/15 02:50:40;;;;;;;17.90;6.53;;;1.20;99.90;;;;;;5044044;28;20396;-69
2022/12/15 02:53:15;;;;;;;17.35;7.00;;;1.20;99.90;;;;;;5058575;28;20025;-69
2022/12/15 02:55:49;;;;;;;15.85;6.47;;;1.20;99.90;;;;;;5068457;28;20612;-69
2022/12/15 02:58:30;;;;;;;20.20;8.45;;;1.30;99.90;;;;;;5058043;28;20033;-69
2022/12/15 03:01:07;;;;;;;15.45;6.40;;;1.30;99.90;;;;;;5059629;28;20061;-69
2022/12/15 03:03:34;;;;;;;13.73;6.03;;;1.30;99.90;;;;;;5067148;28;20040;-69
2022/12/15 03:06:01;;;;;;;14.52;6.32;;;1.20;99.90;;;;;;5056365;28;20027;-69
2022/12/15 03:08:28;;;;;;;17.40;6.65;;;1.20;99.90;;;;;;5063753;28;20111;-68
2022/12/15 03:10:55;;;;;;;16.17;6.45;;;1.20;99.90;;;;;;5063803;28;20549;-69
2022/12/15 03:13:21;;;;;;;16.08;6.22;;;1.20;99.90;;;;;;5055379;28;20047;-69
2022/12/15 03:15:47;;;;;;;16.92;6.32;;;1.20;99.90;;;;;;5058195;28;20143;-68
2022/12/15 03:18:12;;;;;;;15.30;6.05;;;1.20;99.90;;;;;;5069178;28;20033;-68
2022/12/15 03:20:38;;;;;;;16.02;6.38;;;1.20;99.90;;;;;;5065624;28;20064;-69
2022/12/15 03:23:03;;;;;;;15.65;6.72;;;1.20;99.90;;;;;;5062225;28;20025;-69
2022/12/15 03:25:29;;;;;;;16.13;6.72;;;1.20;99.90;;;;;;5072137;28;20425;-68
2022/12/15 03:27:54;;;;;;;16.55;6.05;;;1.20;99.90;;;;;;5059557;28;20549;-68
2022/12/15 03:30:21;;;;;;;16.67;6.75;;;1.30;99.90;;;;;;5067973;28;20056;-69
2022/12/15 03:32:46;;;;;;;17.23;7.55;;;1.30;99.90;;;;;;5066664;28;20093;-68
2022/12/15 03:35:12;;;;;;;18.55;7.63;;;1.40;99.90;;;;;;5060890;28;20104;-68
2022/12/15 03:37:38;;;;;;;20.75;8.50;;;1.40;99.90;;;;;;5071928;28;20380;-68
2022/12/15 03:40:05;;;;;;;18.17;8.30;;;1.50;99.90;;;;;;5060578;28;20020;-68
2022/12/15 03:42:49;;;;;;;22.23;7.97;;;1.60;99.90;;;;;;5066624;28;20106;-69
2022/12/15 03:45:20;;;;;;;17.35;7.78;;;1.50;99.90;;;;;;5069046;28;20353;-69
2022/12/15 03:47:46;;;;;;;20.90;7.90;;;1.50;99.90;;;;;;5058508;28;20094;-69
2022/12/15 03:50:15;;;;;;;20.05;7.95;;;1.50;99.90;;;;;;5068792;28;20056;-68
2022/12/15 03:52:41;;;;;;;20.27;8.48;;;1.40;99.90;;;;;;5065427;28;20029;-69
2022/12/15 03:55:08;;;;;;;19.50;7.50;;;1.40;99.90;;;;;;5061036;28;20033;-68
2022/12/15 03:57:33;;;;;;;20.75;7.25;;;1.30;99.90;;;;;;5071761;28;20119;-69
2022/12/15 03:59:59;;;;;;;18.65;7.57;;;1.30;99.90;;;;;;5059444;28;20150;-68
2022/12/15 04:02:24;;;;;;;18.35;7.45;;;1.30;99.90;;;;;;5067488;28;20033;-69
2022/12/15 04:04:50;;;;;;;18.17;7.80;;;1.30;99.90;;;;;;5066454;28;20024;-69
2022/12/15 04:07:15;;;;;;;25.02;7.43;;;1.20;99.90;;;;;;5059679;28;20021;-69
2022/12/15 04:09:41;;;;;;;23.33;9.07;;;1.20;99.90;;;;;;5070831;28;20127;-69
2022/12/15 04:12:09;;;;;;;23.42;8.02;;;1.20;99.90;;;;;;5060040;28;20115;-70
2022/12/15 04:14:35;;;;;;;24.38;9.30;;;1.20;99.90;;;;;;5065836;28;20147;-68
2022/12/15 04:17:00;;;;;;;23.92;8.43;;;1.10;99.90;;;;;;5067502;28;20433;-69
2022/12/15 04:22:10;;;;;;;20.70;9.15;;;1.20;99.90;;;;;;5045717;28;20047;-69
2022/12/15 05:33:06;;;;;;;18.08;7.60;;;1.30;99.90;;;;;;5052306;28;20079;-68
2022/12/15 05:35:32;;;;;;;21.15;7.68;;;1.30;99.90;;;;;;5053093;28;20488;-69
2022/12/15 05:37:57;;;;;;;16.50;7.22;;;1.30;99.90;;;;;;5053126;28;20036;-68
2022/12/15 05:40:23;;;;;;;20.90;9.23;;;1.20;99.90;;;;;;5053281;28;20055;-68
2022/12/15 05:42:48;;;;;;;17.33;7.20;;;1.20;99.90;;;;;;5053573;28;20528;-68
2022/12/15 05:45:14;;;;;;;18.10;7.78;;;1.20;99.90;;;;;;5052593;28;20400;-68
2022/12/15 05:47:39;;;;;;;21.27;7.20;;;1.20;99.90;;;;;;5053438;28;20457;-68
2022/12/15 05:50:05;;;;;;;17.65;7.78;;;1.10;99.90;;;;;;5053051;28;20489;-68
2022/12/15 05:52:31;;;;;;;19.58;7.35;;;1.10;99.90;;;;;;5053372;28;20032;-68
2022/12/15 05:54:57;;;;;;;21.75;7.45;;;1.10;99.90;;;;;;5053228;28;20025;-68
2022/12/15 05:57:22;;;;;;;15.23;6.85;;;1.00;99.90;;;;;;5053267;28;20040;-68
2022/12/15 05:59:48;;;;;;;19.48;7.50;;;1.00;99.90;;;;;;5053173;28;20025;-68
2022/12/15 06:02:13;;;;;;;14.20;6.55;;;1.00;99.90;;;;;;5053138;28;20039;-68
2022/12/15 06:04:39;;;;;;;24.10;7.07;;;0.90;99.90;;;;;;5053334;28;20117;-68
2022/12/15 06:07:04;;;;;;;20.60;8.02;;;0.90;99.90;;;;;;5053236;28;20036;-68
2022/12/15 06:09:30;;;;;;;19.20;7.93;;;0.90;99.90;;;;;;5053015;28;20087;-69
2022/12/15 06:11:55;;;;;;;17.98;7.45;;;0.90;99.90;;;;;;5052872;28;20071;-68
2022/12/15 06:14:21;;;;;;;18.98;7.90;;;0.90;99.90;;;;;;5053238;28;20475;-67
2022/12/15 06:16:46;;;;;;;21.27;8.52;;;0.90;99.90;;;;;;5052762;28;20025;-68
2022/12/15 06:19:12;;;;;;;17.70;7.63;;;0.80;99.90;;;;;;5053014;28;20048;-68
2022/12/15 06:21:38;;;;;;;17.05;8.13;;;0.90;99.90;;;;;;5053304;28;20024;-68
2022/12/15 06:24:04;;;;;;;20.52;8.48;;;0.90;99.90;;;;;;5052951;28;20079;-68
2022/12/15 06:26:32;;;;;;;21.70;7.90;;;0.90;99.90;;;;;;5052757;28;20021;-68
2022/12/15 06:29:03;;;;;;;18.27;8.02;;;0.90;99.90;;;;;;5052717;28;20045;-68
2022/12/15 06:31:30;;;;;;;23.25;8.70;;;0.80;99.90;;;;;;5052772;28;20017;-68
2022/12/15 06:33:56;;;;;;;20.17;8.82;;;0.80;99.90;;;;;;5052767;28;20025;-68
2022/12/15 06:36:23;;;;;;;23.65;9.32;;;0.90;99.90;;;;;;5052788;28;20032;-68
2022/12/15 06:38:49;;;;;;;22.90;9.60;;;0.90;99.90;;;;;;5052581;28;20762;-68
2022/12/15 06:41:18;;;;;;;25.30;10.60;;;0.90;99.90;;;;;;5052695;28;20039;-68
2022/12/15 06:43:49;;;;;;;26.05;11.18;;;0.90;99.90;;;;;;5052931;28;20025;-68
2022/12/15 06:46:15;;;;;;;23.00;10.02;;;0.80;99.90;;;;;;5052513;28;20461;-68
2022/12/15 06:48:43;;;;;;;18.17;7.50;;;0.80;99.90;;;;;;5052114;28;20064;-68
2022/12/15 06:51:10;;;;;;;20.40;8.30;;;0.80;99.90;;;;;;5052520;28;20032;-68
2022/12/15 06:53:37;;;;;;;23.42;8.40;;;0.70;99.90;;;;;;5052202;28;20468;-68
2022/12/15 06:56:05;;;;;;;18.30;7.10;;;0.70;99.90;;;;;;5052478;28;20029;-68
2022/12/15 06:58:32;;;;;;;18.70;8.00;;;0.70;99.90;;;;;;5051480;28;20031;-68
2022/12/15 07:00:58;;;;;;;19.95;8.13;;;0.70;99.90;;;;;;5052379;28;20032;-68
2022/12/15 07:03:23;;;;;;;20.38;7.80;;;0.80;99.90;;;;;;5052282;28;20380;-68
2022/12/15 07:06:03;;;;;;;17.38;7.45;;;0.80;99.90;;;;;;5052239;28;20025;-68
2022/12/15 07:08:29;;;;;;;23.55;8.90;;;0.80;99.90;;;;;;5052067;28;20109;-68
2022/12/15 07:10:54;;;;;;;21.30;7.78;;;0.80;99.90;;;;;;5052117;28;20116;-68
2022/12/15 07:13:20;;;;;;;20.73;8.55;;;0.80;99.90;;;;;;5052448;28;20484;-67
2022/12/15 07:15:48;;;;;;;25.45;8.50;;;0.80;99.90;;;;;;5051025;28;20025;-67
2022/12/15 07:18:15;;;;;;;22.73;7.10;;;0.80;99.90;;;;;;5052265;28;20029;-67
2022/12/15 07:20:40;;;;;;;23.60;8.57;;;0.80;99.90;;;;;;5052041;28;20033;-68
2022/12/15 07:23:08;;;;;;;21.63;9.00;;;1.00;99.90;;;;;;5052283;28;20029;-68
2022/12/15 07:25:37;;;;;;;22.00;8.43;;;1.00;99.90;;;;;;5051960;28;20029;-67
2022/12/15 07:28:02;;;;;;;16.95;7.65;;;1.10;99.90;;;;;;5052136;28;20036;-68
2022/12/15 07:30:28;;;;;;;17.83;7.60;;;1.10;99.90;;;;;;5052058;28;20045;-69
2022/12/15 07:32:54;;;;;;;18.92;8.07;;;1.20;99.90;;;;;;5050624;28;20408;-68
2022/12/15 07:35:20;;;;;;;26.02;8.55;;;1.20;99.90;;;;;;5051280;28;20792;-68
2022/12/15 07:37:46;;;;;;;21.88;8.20;;;1.30;99.90;;;;;;5051506;28;20025;-68
2022/12/15 07:40:12;;;;;;;22.58;8.85;;;1.30;99.90;;;;;;5048554;28;20159;-68
2022/12/15 07:42:38;;;;;;;20.20;8.20;;;1.40;99.90;;;;;;5051820;28;20441;-68
2022/12/15 07:45:04;;;;;;;23.02;9.85;;;1.30;99.90;;;;;;5051879;28;20087;-68
2022/12/15 07:47:30;;;;;;;18.98;7.85;;;1.30;99.90;;;;;;5052053;28;20029;-68
2022/12/15 07:49:56;;;;;;;25.15;9.60;;;1.30;99.90;;;;;;5051437;28;20338;-68
2022/12/15 07:52:23;;;;;;;27.90;10.00;;;1.40;99.90;;;;;;5051643;28;20095;-68
2022/12/15 07:54:48;;;;;;;23.33;9.15;;;1.40;99.90;;;;;;5051249;28;20025;-68
2022/12/15 07:57:15;;;;;;;20.77;8.48;;;1.40;99.90;;;;;;5053560;28;20091;-68
2022/12/15 07:59:40;;;;;;;37.45;12.35;;;1.40;99.90;;;;;;5055560;28;20024;-68
2022/12/15 08:02:08;;;;;;;25.45;9.55;;;1.40;99.90;;;;;;5055118;28;20021;-68
2022/12/15 08:04:34;;;;;;;25.25;10.15;;;1.50;99.90;;;;;;5055182;28;20491;-68
2022/12/15 08:06:59;;;;;;;21.05;8.75;;;1.60;99.90;;;;;;5055513;28;20068;-68
2022/12/15 08:09:25;;;;;;;22.40;8.57;;;1.60;99.90;;;;;;5054755;28;20074;-68
2022/12/15 08:11:51;;;;;;;19.35;7.40;;;1.70;99.90;;;;;;5055312;28;20032;-68
2022/12/15 08:14:17;;;;;;;20.85;6.90;;;1.70;99.90;;;;;;5055162;28;20033;-68
2022/12/15 08:16:42;;;;;;;16.92;6.95;;;1.70;99.90;;;;;;5053756;28;20028;-68
2022/12/15 08:19:14;;;;;;;19.88;7.38;;;1.70;99.90;;;;;;5054671;28;20572;-69
2022/12/15 08:21:40;;;;;;;25.47;9.07;;;1.80;99.90;;;;;;5054930;28;20025;-68
2022/12/15 08:24:07;;;;;;;27.85;10.20;;;1.80;99.90;;;;;;5054507;28;20755;-69
2022/12/15 08:26:33;;;;;;;18.40;5.78;;;1.80;99.90;;;;;;5054868;28;20472;-69
2022/12/15 08:29:03;;;;;;;15.32;6.00;;;2.00;99.90;;;;;;5054439;28;20083;-68
2022/12/15 08:31:31;;;;;;;19.33;6.68;;;2.10;99.90;;;;;;5053556;28;20025;-71
2022/12/15 08:33:57;;;;;;;19.38;6.00;;;2.30;99.90;;;;;;5053148;28;20105;-71
2022/12/15 08:36:22;;;;;;;18.52;5.63;;;2.50;99.90;;;;;;5054384;28;20021;-71
2022/12/15 08:38:48;;;;;;;16.70;5.88;;;2.60;99.90;;;;;;5054560;28;20032;-71
2022/12/15 08:41:20;;;;;;;16.98;5.43;;;2.70;99.90;;;;;;5053444;28;20127;-70
2022/12/15 08:43:46;;;;;;;18.88;6.30;;;2.70;99.90;;;;;;5054902;28;20021;-70
2022/12/15 08:46:12;;;;;;;19.58;7.03;;;2.70;99.90;;;;;;5054816;28;20025;-70
2022/12/15 08:48:38;;;;;;;19.20;6.68;;;2.70;99.90;;;;;;5054214;28;20473;-70
2022/12/15 08:51:05;;;;;;;18.88;6.50;;;2.70;99.90;;;;;;5053676;28;20041;-70
2022/12/15 08:53:30;;;;;;;14.82;5.88;;;2.70;99.90;;;;;;5054563;28;20032;-70
2022/12/15 08:56:05;;;;;;;24.00;7.90;;;2.70;99.90;;;;;;5054593;28;20028;-69
2022/12/15 08:58:30;;;;;;;19.38;8.55;;;2.70;99.90;;;;;;5054189;28;20047;-70
2022/12/15 09:01:09;;;;;;;18.50;7.65;;;2.70;99.90;;;;;;5054711;28;20437;-69
2022/12/15 09:03:35;;;;;;;15.95;6.40;;;2.80;99.90;;;;;;5054480;28;20021;-70
2022/12/15 09:06:02;;;;;;;19.17;7.57;;;2.90;99.90;;;;;;5054213;28;20110;-71
2022/12/15 09:08:29;;;;;;;19.35;7.78;;;2.90;99.90;;;;;;5054468;28;20025;-70
2022/12/15 09:10:57;;;;;;;23.95;8.90;;;3.00;99.90;;;;;;5054419;28;20037;-69
2022/12/15 09:13:22;;;;;;;20.48;8.05;;;3.20;99.90;;;;;;5054402;28;20052;-69
2022/12/15 09:16:01;;;;;;;20.63;7.93;;;3.30;99.90;;;;;;5052229;28;20079;-68
2022/12/15 09:18:27;;;;;;;21.77;8.77;;;3.50;99.90;;;;;;5054194;28;20025;-70
2022/12/15 09:20:54;;;;;;;20.98;8.05;;;3.70;99.90;;;;;;5054012;28;20032;-70
2022/12/15 09:23:20;;;;;;;20.60;8.52;;;3.90;99.90;;;;;;5053667;28;20021;-70
2022/12/15 09:25:46;;;;;;;18.33;8.77;;;4.00;99.90;;;;;;5053854;28;20049;-69
2022/12/15 09:28:12;;;;;;;21.27;9.50;;;4.10;99.90;;;;;;5053783;28;20088;-69
2022/12/15 09:30:38;;;;;;;19.73;8.00;;;4.20;99.90;;;;;;5053550;28;20033;-70
2022/12/15 09:33:03;;;;;;;21.63;7.72;;;4.20;99.90;;;;;;5051634;28;22167;-69
2022/12/15 09:35:29;;;;;;;24.25;10.30;;;4.10;99.90;;;;;;5053257;28;20021;-69
2022/12/15 09:37:58;;;;;;;18.17;7.93;;;4.20;99.90;;;;;;5053437;28;20518;-69
2022/12/15 09:40:25;;;;;;;18.83;6.43;;;4.20;99.90;;;;;;5050602;28;20033;-71
2022/12/15 09:42:55;;;;;;;16.10;6.10;;;4.10;99.90;;;;;;5053429;28;20040;-69
2022/12/15 09:45:36;;;;;;;20.38;6.85;;;4.20;99.90;;;;;;5053602;28;20079;-69
2022/12/15 09:48:07;;;;;;;17.13;7.40;;;4.10;99.90;;;;;;5053602;28;20025;-69
2022/12/15 09:50:38;;;;;;;23.17;8.30;;;4.00;99.90;;;;;;5053063;28;20048;-68
2022/12/15 09:53:09;;;;;;;18.88;8.18;;;3.80;99.90;;;;;;5053356;28;20037;-69
2022/12/15 09:55:35;;;;;;;17.20;6.55;;;3.80;99.90;;;;;;5053042;28;20017;-69
2022/12/15 09:58:27;;;;;;;16.13;6.97;;;3.80;99.90;;;;;;5052930;28;20029;-69
2022/12/15 10:01:06;;;;;;;19.92;7.45;;;3.80;99.90;;;;;;5052940;28;20109;-69
2022/12/15 10:03:35;;;;;;;19.95;7.75;;;4.10;99.90;;;;;;5053361;28;20048;-68
2022/12/15 10:06:12;;;;;;;19.90;7.28;;;4.40;99.90;;;;;;5052966;28;20021;-68
2022/12/15 10:08:46;;;;;;;19.15;7.28;;;4.50;99.90;;;;;;5053508;28;20044;-68
2022/12/15 10:11:39;;;;;;;19.83;6.28;;;4.80;99.90;;;;;;5052850;28;20536;-68
2022/12/15 10:14:52;;;;;;;17.95;7.05;;;4.90;99.90;;;;;;5043239;28;20041;-68
2022/12/15 10:17:36;;;;;;;14.00;5.43;;;5.10;99.90;;;;;;5031355;28;20042;-68
2022/12/15 10:20:17;;;;;;;16.27;6.28;;;5.10;99.90;;;;;;5032944;28;20030;-68
2022/12/15 10:22:44;;;;;;;16.55;5.53;;;5.10;99.90;;;;;;5032846;28;20025;-68
2022/12/15 10:25:19;;;;;;;13.93;5.28;;;5.10;99.90;;;;;;5033171;28;20025;-68
2022/12/15 10:28:35;;;;;;;17.52;6.07;;;5.10;99.90;;;;;;5033080;28;20534;-68
2022/12/15 10:31:08;;;;;;;18.42;5.40;;;5.40;99.90;;;;;;5031586;28;20555;-68
2022/12/15 10:33:36;;;;;;;15.68;4.35;;;6.20;99.90;;;;;;5048371;28;20480;-68
2022/12/15 10:36:09;;;;;;;11.88;3.58;;;6.90;99.90;;;;;;5051423;28;20079;-68
2022/12/15 10:38:41;;;;;;;9.57;3.88;;;7.60;99.90;;;;;;5052881;28;20021;-68
2022/12/15 10:41:10;;;;;;;12.43;3.38;;;8.30;99.90;;;;;;5052711;28;20021;-68
2022/12/15 10:43:42;;;;;;;19.85;3.55;;;9.00;99.90;;;;;;5052484;28;20064;-68
2022/12/15 10:46:08;;;;;;;14.32;3.50;;;9.80;99.90;;;;;;5052649;28;20094;-69
2022/12/15 10:48:34;;;;;;;40.08;22.65;;;10.50;99.90;;;;;;5052696;28;20044;-69
2022/12/15 10:51:12;;;;;;;17.23;4.75;;;11.00;99.90;;;;;;5052724;28;20025;-69
2022/12/15 10:53:45;;;;;;;7.75;1.90;;;11.60;99.90;;;;;;5052862;28;20060;-68
2022/12/15 10:56:24;;;;;;;10.02;1.80;;;12.10;99.90;;;;;;5052446;28;20071;-68
2022/12/15 10:58:56;;;;;;;9.70;1.75;;;12.30;99.90;;;;;;5052495;28;20108;-66
2022/12/15 11:01:32;;;;;;;;;;;12.40;99.60;;;;;;5052656;28;20445;-67
2022/12/15 11:03:58;;;;;;;9.27;1.80;;;12.50;99.40;;;;;;5052292;28;20372;-67
2022/12/15 11:06:30;;;;;;;14.05;2.53;;;12.70;98.40;;;;;;5051964;28;20032;-67
2022/12/15 11:09:07;;;;;;;11.88;2.40;;;12.80;98.40;;;;;;5052398;28;20116;-67
2022/12/15 11:14:24;;;;;;;11.15;2.10;;;13.20;98.40;;;;;;5051623;28;20040;-67
2022/12/15 11:16:55;;;;;;;10.30;1.85;;;13.50;97.30;;;;;;5052413;28;20029;-68
2022/12/15 11:19:26;;;;;;;21.42;6.05;;;13.60;97.10;;;;;;5052432;28;20115;-68
2022/12/15 11:21:58;;;;;;;28.23;6.97;;;13.70;96.50;;;;;;5052406;28;20033;-68
2022/12/15 11:24:57;;;;;;;28.23;7.15;;;13.90;96.00;;;;;;5052486;28;20029;-68
2022/12/15 11:27:35;;;;;;;19.27;4.32;;;14.00;95.90;;;;;;5051990;28;20087;-68
2022/12/15 11:30:03;;;;;;;7.57;1.85;;;14.10;95.90;;;;;;5051790;28;20052;-68
2022/12/15 11:32:33;;;;;;;6.53;1.65;;;14.00;94.70;;;;;;5054689;28;20029;-69
2022/12/15 11:34:59;;;;;;;15.23;3.22;;;13.90;94.70;;;;;;5056447;28;20037;-68
2022/12/15 11:37:37;;;;;;;17.98;4.85;;;13.90;95.30;;;;;;5055708;28;20388;-68
2022/12/15 11:40:13;;;;;;;15.10;3.28;;;14.00;95.20;;;;;;5053915;28;20033;-69
2022/12/15 11:42:47;;;;;;;12.85;2.25;;;14.00;94.30;;;;;;5056005;28;20420;-69
2022/12/15 11:45:26;;;;;;;10.15;1.92;;;14.00;93.80;;;;;;5056265;28;20111;-68
2022/12/15 11:48:00;;;;;;;10.07;1.55;;;13.90;94.00;;;;;;5055706;28;20025;-69
2022/12/15 11:50:50;;;;;;;8.25;1.83;;;13.80;93.90;;;;;;5055344;28;20389;-68
2022/12/15 11:53:29;;;;;;;10.93;2.88;;;13.80;93.70;;;;;;5055259;28;20025;-68
2022/12/15 11:55:57;;;;;;;13.85;2.40;;;13.70;94.20;;;;;;5055580;28;20055;-70
2022/12/15 11:58:46;;;;;;;15.25;2.95;;;13.60;94.40;;;;;;5055516;28;20583;-70
2022/12/15 12:01:15;;;;;;;16.02;2.78;;;13.60;94.00;;;;;;5055699;28;20064;-68
2022/12/15 12:04:21;;;;;;;6.22;1.25;;;13.40;93.60;;;;;;5055378;28;20032;-69
2022/12/15 12:07:02;;;;;;;8.02;2.13;;;13.30;93.60;;;;;;5055307;28;20057;-70
2022/12/15 12:09:44;;;;;;;13.45;2.30;;;13.10;94.40;;;;;;5055424;28;20036;-70
2022/12/15 12:12:21;;;;;;;2.88;0.90;;;13.10;94.60;;;;;;5055236;28;20467;-69
2022/12/15 12:15:14;;;;;;;10.43;1.92;;;13.00;94.40;;;;;;5054929;28;20392;-69
2022/12/15 12:17:49;;;;;;;11.88;3.00;;;13.00;94.30;;;;;;5055062;28;20435;-70
2022/12/15 12:20:25;;;;;;;7.07;1.25;;;12.70;94.50;;;;;;5055179;28;20037;-71
2022/12/15 12:23:03;;;;;;;4.95;1.20;;;12.40;94.30;;;;;;5055172;28;20025;-69
2022/12/15 12:25:33;;;;;;;12.98;1.63;;;12.00;94.80;;;;;;5054865;28;20735;-71
2022/12/15 12:28:26;;;;;;;10.30;1.80;;;11.90;95.50;;;;;;5055188;28;20025;-69
2022/12/15 12:30:55;;;;;;;7.03;1.70;;;11.60;95.80;;;;;;5054807;28;20388;-70
2022/12/15 12:33:21;;;;;;;9.02;1.95;;;11.50;95.90;;;;;;5054366;28;20039;-70
2022/12/15 12:35:58;;;;;;;6.68;1.70;;;11.60;96.50;;;;;;5055072;28;20021;-71
2022/12/15 12:38:32;;;;;;;6.97;1.70;;;11.80;96.30;;;;;;5054931;28;20025;-69
2022/12/15 12:41:03;;;;;;;7.13;1.42;;;11.50;95.90;;;;;;5055041;28;20021;-70
2022/12/15 12:43:33;;;;;;;7.43;1.10;;;11.30;96.50;;;;;;5054043;28;20033;-69
2022/12/15 12:46:06;;;;;;;6.43;1.13;;;11.30;96.70;;;;;;5054845;28;20029;-71
2022/12/15 12:48:40;;;;;;;9.07;1.60;;;11.50;97.80;;;;;;5053310;28;20049;-71
2022/12/15 12:51:11;;;;;;;3.85;1.10;;;11.60;97.10;;;;;;5054876;28;20465;-71
2022/12/15 12:53:37;;;;;;;5.17;1.10;;;11.60;97.00;;;;;;5054944;28;20027;-70
2022/12/15 12:56:02;;;;;;;6.45;1.45;;;11.80;97.70;;;;;;5054407;28;20099;-70
2022/12/15 12:58:35;;;;;;;5.60;1.15;;;12.00;97.20;;;;;;5054203;28;20059;-69
2022/12/15 13:01:05;;;;;;;9.98;1.42;;;11.80;96.30;;;;;;5054446;28;20024;-70
2022/12/15 13:03:31;;;;;;;9.07;1.20;;;11.30;96.70;;;;;;5054617;28;20025;-71
2022/12/15 13:05:57;;;;;;;7.25;1.40;;;11.00;97.50;;;;;;5054480;28;20075;-71
2022/12/15 13:08:50;;;;;;;4.15;1.27;;;10.90;97.60;;;;;;5054651;28;20037;-71
2022/12/15 13:11:43;;;;;;;6.88;1.30;;;11.00;98.30;;;;;;5054097;28;20388;-70
2022/12/15 13:14:17;;;;;;;6.85;1.23;;;11.00;98.10;;;;;;5054481;28;20106;-71
2022/12/15 13:16:44;;;;;;;6.72;1.15;;;11.00;98.00;;;;;;5054013;28;20112;-71
2022/12/15 13:19:10;;;;;;;5.43;0.90;;;10.90;97.10;;;;;;5052807;28;20482;-71
2022/12/15 13:21:45;;;;;;;6.07;1.38;;;10.80;98.10;;;;;;5054063;28;20028;-70
2022/12/15 13:24:29;;;;;;;2.75;0.80;;;10.80;98.10;;;;;;5054103;28;20037;-70
2022/12/15 13:27:07;;;;;;;6.97;1.42;;;10.70;98.30;;;;;;5054019;28;20070;-69
2022/12/15 13:29:35;;;;;;;5.18;1.25;;;10.60;98.50;;;;;;5053785;28;20510;-71
2022/12/15 13:32:01;;;;;;;7.43;1.20;;;10.40;98.80;;;;;;5053544;28;20025;-70
2022/12/15 13:34:34;;;;;;;4.13;1.55;;;10.30;99.50;;;;;;5053492;28;20025;-70
2022/12/15 13:37:00;;;;;;;8.13;1.50;;;10.20;99.50;;;;;;5053906;28;20033;-69
2022/12/15 13:39:29;;;;;;;6.07;1.33;;;9.90;99.50;;;;;;5053682;28;20110;-71
2022/12/15 13:41:54;;;;;;;7.60;1.40;;;9.60;99.90;;;;;;5053857;28;20033;-69
2022/12/15 13:44:23;;;;;;;5.70;0.82;;;9.40;99.90;;;;;;5053314;28;20090;-70
2022/12/15 13:46:51;;;;;;;9.68;1.67;;;9.20;99.90;;;;;;5053526;28;20102;-70
2022/12/15 13:49:37;;;;;;;8.82;1.48;;;9.10;99.90;;;;;;5053597;28;20060;-69
2022/12/15 13:52:25;;;;;;;6.25;1.42;;;8.90;99.90;;;;;;5053647;28;20029;-69
2022/12/15 13:54:59;;;;;;;4.88;1.20;;;8.70;99.90;;;;;;5051159;28;20091;-70
2022/12/15 13:57:28;;;;;;;7.15;1.70;;;8.40;99.90;;;;;;5052866;28;20074;-70
2022/12/15 14:00:17;;;;;;;4.40;1.33;;;8.20;99.90;;;;;;5053486;28;20075;-68
2022/12/15 14:02:43;;;;;;;8.50;1.75;;;8.00;99.90;;;;;;5053300;28;20025;-70
2022/12/15 14:05:18;;;;;;;1.83;1.20;;;7.90;99.90;;;;;;5053225;28;20037;-68
2022/12/15 14:07:47;;;;;;;6.55;1.27;;;7.80;99.90;;;;;;5053198;28;20491;-69
2022/12/15 14:10:25;;;;;;;8.80;1.23;;;7.70;99.90;;;;;;5053139;28;20069;-69
2022/12/15 14:12:54;;;;;;;6.15;1.38;;;7.60;99.90;;;;;;5053042;28;20021;-68
2022/12/15 14:15:28;;;;;;;8.38;1.70;;;7.50;99.90;;;;;;5053198;28;20072;-70
2022/12/15 14:17:56;;;;;;;5.05;1.10;;;7.40;99.90;;;;;;5053046;28;20423;-68
2022/12/15 14:20:26;;;;;;;6.88;1.60;;;7.30;99.90;;;;;;5052963;28;20380;-69
2022/12/15 14:22:53;;;;;;;6.80;1.30;;;7.20;99.90;;;;;;5053059;28;20032;-69
2022/12/15 14:25:21;;;;;;;11.85;1.50;;;7.10;99.90;;;;;;5053067;28;20020;-69
2022/12/15 14:27:48;;;;;;;6.15;1.83;;;7.00;99.90;;;;;;5053075;28;20039;-70
2022/12/15 14:30:13;;;;;;;8.73;1.48;;;6.90;99.90;;;;;;5052959;28;20127;-69
2022/12/15 14:32:40;;;;;;;4.97;0.98;;;6.80;99.90;;;;;;5053052;28;20492;-70
2022/12/15 14:35:13;;;;;;;5.45;1.10;;;6.80;99.90;;;;;;5052870;28;20057;-69
2022/12/15 14:37:39;;;;;;;8.10;1.83;;;6.70;99.90;;;;;;5052777;28;20031;-69
2022/12/15 14:40:05;;;;;;;8.38;1.50;;;6.70;99.90;;;;;;5052817;28;20032;-70
2022/12/15 14:42:31;;;;;;;9.88;1.80;;;6.60;99.90;;;;;;5052677;28;20121;-68
2022/12/15 14:44:57;;;;;;;10.98;1.98;;;6.60;99.90;;;;;;5052897;28;20111;-68
2022/12/15 14:47:27;;;;;;;5.78;1.67;;;6.50;99.90;;;;;;5052069;28;20079;-69
2022/12/15 14:49:56;;;;;;;9.55;1.80;;;6.50;99.90;;;;;;5052503;28;20062;-68
2022/12/15 14:52:26;;;;;;;12.88;2.78;;;6.40;99.90;;;;;;5052599;28;20017;-69
2022/12/15 14:54:57;;;;;;;7.70;2.22;;;6.40;99.90;;;;;;5052481;28;20475;-69
2022/12/15 14:57:27;;;;;;;7.78;1.80;;;6.30;99.90;;;;;;5052455;28;20079;-68
2022/12/15 14:59:52;;;;;;;8.75;2.10;;;6.30;99.90;;;;;;5052128;28;20384;-69
2022/12/15 15:02:27;;;;;;;13.70;2.45;;;6.20;99.90;;;;;;5052649;28;20025;-70
2022/12/15 15:05:06;;;;;;;10.02;2.70;;;6.20;99.90;;;;;;5052721;28;20025;-70
2022/12/15 15:07:34;;;;;;;11.80;2.75;;;6.20;99.90;;;;;;5056734;28;20025;-68
2022/12/15 15:10:19;;;;;;;9.93;2.28;;;6.20;99.90;;;;;;5056270;28;20048;-68
2022/12/15 15:12:47;;;;;;;7.30;1.92;;;6.10;99.90;;;;;;5056669;28;20031;-68
2022/12/15 15:15:19;;;;;;;11.07;2.40;;;6.10;99.90;;;;;;5056696;28;20025;-69
2022/12/15 15:17:53;;;;;;;17.70;2.88;;;6.00;99.90;;;;;;5056478;28;20075;-69
2022/12/15 15:20:33;;;;;;;19.85;2.65;;;5.90;99.90;;;;;;5056596;28;20119;-69
2022/12/15 15:23:06;;;;;;;5.95;1.90;;;5.80;99.90;;;;;;5056086;28;20044;-69
2022/12/15 15:25:31;;;;;;;7.18;1.77;;;5.70;99.90;;;;;;5056102;28;20510;-68
2022/12/15 15:28:14;;;;;;;10.18;2.53;;;5.60;99.90;;;;;;5056473;28;20061;-68
2022/12/15 15:30:42;;;;;;;15.10;2.97;;;5.60;99.90;;;;;;5056253;28;20083;-68
2022/12/15 15:33:08;;;;;;;15.73;2.38;;;5.60;99.90;;;;;;5056180;28;20029;-69